sensor_id;sensor_type;location;lat;lon;timestamp;P1;durP1;ratioP1;P2;durP2;ratioP2
73023;SDS011;61199;47.526;8.538;2023-01-04T00:01:24;52.57;;;23.97;;
73023;SDS011;61199;47.526;8.538;2023-01-04T00:03:50;52.00;;;23.23;;
73023;SDS011;61199;47.526;8.538;2023-01-04T00:06:17;45.80;;;21.60;;
73023;SDS011;61199;47.526;8.538;2023-01-04T00:08:44;41.63;;;19.53;;
73023;SDS011;61199;47.526;8.538;2023-01-04T00:11:12;45.90;;;21.20;;
73023;SDS011;61199;47.526;8.538;2023-01-04T00:13:42;41.57;;;20.30;;
73023;SDS011;61199;47.526;8.538;2023-01-04T00:16:10;44.87;;;21.33;;
73023;SDS011;61199;47.526;8.538;2023-01-04T00:18:42;43.90;;;22.03;;
73023;SDS011;61199;47.526;8.538;2023-01-04T00:21:19;50.23;;;23.40;;
73023;SDS011;61199;47.526;8.538;2023-01-04T00:23:53;46.60;;;23.50;;
73023;SDS011;61199;47.526;8.538;2023-01-04T00:26:26;42.03;;;21.10;;
73023;SDS011;61199;47.526;8.538;2023-01-04T00:28:58;46.03;;;21.50;;
73023;SDS011;61199;47.526;8.538;2023-01-04T00:31:26;43.23;;;22.40;;
73023;SDS011;61199;47.526;8.538;2023-01-04T00:33:58;47.93;;;23.13;;
73023;SDS011;61199;47.526;8.538;2023-01-04T00:36:26;51.00;;;23.60;;
73023;SDS011;61199;47.526;8.538;2023-01-04T00:38:54;48.00;;;23.20;;
73023;SDS011;61199;47.526;8.538;2023-01-04T00:41:38;49.20;;;23.73;;
73023;SDS011;61199;47.526;8.538;2023-01-04T00:44:26;49.30;;;22.57;;
73023;SDS011;61199;47.526;8.538;2023-01-04T00:46:53;50.27;;;23.20;;
73023;SDS011;61199;47.526;8.538;2023-01-04T00:49:19;40.07;;;20.40;;
73023;SDS011;61199;47.526;8.538;2023-01-04T00:51:46;41.93;;;19.97;;
73023;SDS011;61199;47.526;8.538;2023-01-04T00:54:13;42.30;;;19.90;;
73023;SDS011;61199;47.526;8.538;2023-01-04T00:56:40;41.53;;;21.37;;
73023;SDS011;61199;47.526;8.538;2023-01-04T00:59:07;44.17;;;22.00;;
73023;SDS011;61199;47.526;8.538;2023-01-04T01:01:33;43.40;;;21.23;;
73023;SDS011;61199;47.526;8.538;2023-01-04T01:04:01;42.13;;;21.23;;
73023;SDS011;61199;47.526;8.538;2023-01-04T01:06:29;49.43;;;22.03;;
73023;SDS011;61199;47.526;8.538;2023-01-04T01:08:57;42.87;;;20.10;;
73023;SDS011;61199;47.526;8.538;2023-01-04T01:11:24;43.23;;;20.77;;
73023;SDS011;61199;47.526;8.538;2023-01-04T01:13:51;45.87;;;23.37;;
73023;SDS011;61199;47.526;8.538;2023-01-04T01:16:19;49.20;;;23.50;;
73023;SDS011;61199;47.526;8.538;2023-01-04T01:19:07;46.23;;;21.10;;
73023;SDS011;61199;47.526;8.538;2023-01-04T01:21:33;41.27;;;21.10;;
73023;SDS011;61199;47.526;8.538;2023-01-04T01:24:00;40.90;;;19.40;;
73023;SDS011;61199;47.526;8.538;2023-01-04T01:26:26;48.37;;;21.60;;
73023;SDS011;61199;47.526;8.538;2023-01-04T01:28:53;43.90;;;21.67;;
73023;SDS011;61199;47.526;8.538;2023-01-04T01:31:21;47.33;;;23.00;;
73023;SDS011;61199;47.526;8.538;2023-01-04T01:33:49;40.33;;;21.13;;
73023;SDS011;61199;47.526;8.538;2023-01-04T01:36:18;50.20;;;20.77;;
73023;SDS011;61199;47.526;8.538;2023-01-04T01:38:46;45.93;;;20.20;;
73023;SDS011;61199;47.526;8.538;2023-01-04T01:41:20;38.03;;;19.23;;
73023;SDS011;61199;47.526;8.538;2023-01-04T01:43:55;45.20;;;20.07;;
73023;SDS011;61199;47.526;8.538;2023-01-04T01:46:37;42.07;;;20.93;;
73023;SDS011;61199;47.526;8.538;2023-01-04T01:49:31;43.20;;;20.37;;
73023;SDS011;61199;47.526;8.538;2023-01-04T01:51:55;39.03;;;19.40;;
73023;SDS011;61199;47.526;8.538;2023-01-04T01:54:32;42.33;;;18.90;;
73023;SDS011;61199;47.526;8.538;2023-01-04T01:57:02;37.70;;;18.00;;
73023;SDS011;61199;47.526;8.538;2023-01-04T01:59:31;39.17;;;18.60;;
73023;SDS011;61199;47.526;8.538;2023-01-04T02:01:59;38.93;;;19.13;;
73023;SDS011;61199;47.526;8.538;2023-01-04T02:04:26;38.57;;;18.03;;
73023;SDS011;61199;47.526;8.538;2023-01-04T02:06:53;37.77;;;18.20;;
73023;SDS011;61199;47.526;8.538;2023-01-04T02:09:23;39.50;;;18.67;;
73023;SDS011;61199;47.526;8.538;2023-01-04T02:11:50;40.60;;;19.27;;
73023;SDS011;61199;47.526;8.538;2023-01-04T02:14:16;36.87;;;18.10;;
73023;SDS011;61199;47.526;8.538;2023-01-04T02:22:13;46.77;;;18.00;;
73023;SDS011;61199;47.526;8.538;2023-01-04T02:36:56;39.63;;;18.13;;
73023;SDS011;61199;47.526;8.538;2023-01-04T02:45:18;38.10;;;18.60;;
73023;SDS011;61199;47.526;8.538;2023-01-04T02:47:48;34.17;;;16.80;;
73023;SDS011;61199;47.526;8.538;2023-01-04T02:50:34;34.60;;;17.07;;
73023;SDS011;61199;47.526;8.538;2023-01-04T02:53:07;35.27;;;17.67;;
73023;SDS011;61199;47.526;8.538;2023-01-04T02:55:56;31.63;;;16.50;;
73023;SDS011;61199;47.526;8.538;2023-01-04T03:01:18;32.03;;;15.67;;
73023;SDS011;61199;47.526;8.538;2023-01-04T03:10:52;33.73;;;16.90;;
73023;SDS011;61199;47.526;8.538;2023-01-04T03:13:39;28.63;;;15.20;;
73023;SDS011;61199;47.526;8.538;2023-01-04T03:16:12;34.00;;;16.50;;
73023;SDS011;61199;47.526;8.538;2023-01-04T03:18:46;39.70;;;18.10;;
73023;SDS011;61199;47.526;8.538;2023-01-04T03:21:15;38.60;;;18.73;;
73023;SDS011;61199;47.526;8.538;2023-01-04T03:23:45;36.30;;;17.07;;
73023;SDS011;61199;47.526;8.538;2023-01-04T03:26:38;32.67;;;17.17;;
73023;SDS011;61199;47.526;8.538;2023-01-04T03:29:30;36.50;;;17.30;;
73023;SDS011;61199;47.526;8.538;2023-01-04T03:32:30;35.30;;;17.67;;
73023;SDS011;61199;47.526;8.538;2023-01-04T03:35:19;33.20;;;17.57;;
73023;SDS011;61199;47.526;8.538;2023-01-04T03:41:02;37.60;;;18.00;;
73023;SDS011;61199;47.526;8.538;2023-01-04T03:43:53;40.23;;;17.77;;
73023;SDS011;61199;47.526;8.538;2023-01-04T03:46:51;36.33;;;17.40;;
73023;SDS011;61199;47.526;8.538;2023-01-04T03:49:40;33.97;;;17.10;;
73023;SDS011;61199;47.526;8.538;2023-01-04T03:52:13;37.10;;;18.70;;
73023;SDS011;61199;47.526;8.538;2023-01-04T03:54:42;40.97;;;19.37;;
73023;SDS011;61199;47.526;8.538;2023-01-04T03:57:11;37.90;;;17.77;;
73023;SDS011;61199;47.526;8.538;2023-01-04T03:59:41;37.23;;;17.83;;
73023;SDS011;61199;47.526;8.538;2023-01-04T04:02:11;42.27;;;19.60;;
73023;SDS011;61199;47.526;8.538;2023-01-04T04:04:39;44.87;;;19.00;;
73023;SDS011;61199;47.526;8.538;2023-01-04T04:07:25;51.17;;;23.67;;
73023;SDS011;61199;47.526;8.538;2023-01-04T04:10:10;53.20;;;24.00;;
73023;SDS011;61199;47.526;8.538;2023-01-04T04:12:36;57.23;;;23.57;;
73023;SDS011;61199;47.526;8.538;2023-01-04T04:15:03;62.63;;;25.30;;
73023;SDS011;61199;47.526;8.538;2023-01-04T04:17:29;63.90;;;24.30;;
73023;SDS011;61199;47.526;8.538;2023-01-04T04:19:56;57.63;;;23.27;;
73023;SDS011;61199;47.526;8.538;2023-01-04T04:22:22;59.27;;;22.90;;
73023;SDS011;61199;47.526;8.538;2023-01-04T04:24:49;50.87;;;22.60;;
73023;SDS011;61199;47.526;8.538;2023-01-04T04:27:15;67.93;;;26.07;;
73023;SDS011;61199;47.526;8.538;2023-01-04T04:29:41;64.57;;;24.87;;
73023;SDS011;61199;47.526;8.538;2023-01-04T04:32:08;62.53;;;24.50;;
73023;SDS011;61199;47.526;8.538;2023-01-04T04:34:34;58.67;;;23.10;;
73023;SDS011;61199;47.526;8.538;2023-01-04T04:37:02;51.70;;;21.60;;
73023;SDS011;61199;47.526;8.538;2023-01-04T04:39:28;50.40;;;21.50;;
73023;SDS011;61199;47.526;8.538;2023-01-04T04:41:55;48.50;;;19.70;;
73023;SDS011;61199;47.526;8.538;2023-01-04T04:44:21;42.73;;;19.43;;
73023;SDS011;61199;47.526;8.538;2023-01-04T04:46:48;40.63;;;20.37;;
73023;SDS011;61199;47.526;8.538;2023-01-04T04:49:15;37.17;;;18.10;;
73023;SDS011;61199;47.526;8.538;2023-01-04T04:51:42;37.90;;;18.53;;
73023;SDS011;61199;47.526;8.538;2023-01-04T04:54:10;41.93;;;19.03;;
73023;SDS011;61199;47.526;8.538;2023-01-04T04:56:39;42.80;;;19.47;;
73023;SDS011;61199;47.526;8.538;2023-01-04T04:59:06;42.40;;;19.00;;
73023;SDS011;61199;47.526;8.538;2023-01-04T05:01:32;39.53;;;18.60;;
73023;SDS011;61199;47.526;8.538;2023-01-04T05:03:59;39.50;;;19.80;;
73023;SDS011;61199;47.526;8.538;2023-01-04T05:06:25;44.50;;;18.90;;
73023;SDS011;61199;47.526;8.538;2023-01-04T05:08:53;45.33;;;19.00;;
73023;SDS011;61199;47.526;8.538;2023-01-04T05:11:19;44.40;;;18.83;;
73023;SDS011;61199;47.526;8.538;2023-01-04T05:14:05;40.10;;;18.00;;
73023;SDS011;61199;47.526;8.538;2023-01-04T05:16:32;32.37;;;16.83;;
73023;SDS011;61199;47.526;8.538;2023-01-04T05:18:58;34.63;;;16.13;;
73023;SDS011;61199;47.526;8.538;2023-01-04T05:21:24;32.73;;;14.60;;
73023;SDS011;61199;47.526;8.538;2023-01-04T05:23:51;28.23;;;14.50;;
73023;SDS011;61199;47.526;8.538;2023-01-04T05:26:17;32.00;;;15.00;;
73023;SDS011;61199;47.526;8.538;2023-01-04T05:28:43;30.90;;;14.50;;
73023;SDS011;61199;47.526;8.538;2023-01-04T05:31:18;31.87;;;14.90;;
73023;SDS011;61199;47.526;8.538;2023-01-04T05:33:45;27.60;;;14.33;;
73023;SDS011;61199;47.526;8.538;2023-01-04T05:36:11;28.10;;;13.30;;
73023;SDS011;61199;47.526;8.538;2023-01-04T05:38:38;29.43;;;14.60;;
73023;SDS011;61199;47.526;8.538;2023-01-04T05:41:04;27.67;;;14.23;;
73023;SDS011;61199;47.526;8.538;2023-01-04T05:43:50;26.03;;;13.27;;
73023;SDS011;61199;47.526;8.538;2023-01-04T05:46:17;29.33;;;14.17;;
73023;SDS011;61199;47.526;8.538;2023-01-04T05:48:43;32.17;;;15.60;;
73023;SDS011;61199;47.526;8.538;2023-01-04T05:51:09;30.53;;;15.90;;
73023;SDS011;61199;47.526;8.538;2023-01-04T05:53:36;31.27;;;15.50;;
73023;SDS011;61199;47.526;8.538;2023-01-04T05:56:02;31.27;;;14.97;;
73023;SDS011;61199;47.526;8.538;2023-01-04T05:58:29;34.70;;;16.57;;
73023;SDS011;61199;47.526;8.538;2023-01-04T06:00:55;34.23;;;17.77;;
73023;SDS011;61199;47.526;8.538;2023-01-04T06:03:22;34.87;;;16.47;;
73023;SDS011;61199;47.526;8.538;2023-01-04T06:05:49;39.67;;;17.50;;
73023;SDS011;61199;47.526;8.538;2023-01-04T06:08:16;33.73;;;16.60;;
73023;SDS011;61199;47.526;8.538;2023-01-04T06:10:43;36.03;;;17.07;;
73023;SDS011;61199;47.526;8.538;2023-01-04T06:13:09;34.63;;;16.90;;
73023;SDS011;61199;47.526;8.538;2023-01-04T06:15:35;32.00;;;16.63;;
73023;SDS011;61199;47.526;8.538;2023-01-04T06:18:08;38.10;;;17.50;;
73023;SDS011;61199;47.526;8.538;2023-01-04T06:20:39;41.97;;;19.27;;
73023;SDS011;61199;47.526;8.538;2023-01-04T06:23:05;37.00;;;17.80;;
73023;SDS011;61199;47.526;8.538;2023-01-04T06:25:31;36.53;;;17.40;;
73023;SDS011;61199;47.526;8.538;2023-01-04T06:27:58;37.07;;;16.77;;
73023;SDS011;61199;47.526;8.538;2023-01-04T06:30:24;40.33;;;18.47;;
73023;SDS011;61199;47.526;8.538;2023-01-04T06:32:50;38.60;;;17.70;;
73023;SDS011;61199;47.526;8.538;2023-01-04T06:35:17;40.30;;;17.70;;
73023;SDS011;61199;47.526;8.538;2023-01-04T06:37:43;38.33;;;18.10;;
73023;SDS011;61199;47.526;8.538;2023-01-04T06:40:09;41.93;;;17.80;;
73023;SDS011;61199;47.526;8.538;2023-01-04T06:42:36;35.90;;;16.83;;
73023;SDS011;61199;47.526;8.538;2023-01-04T06:45:14;38.30;;;16.80;;
73023;SDS011;61199;47.526;8.538;2023-01-04T06:47:41;38.17;;;17.83;;
73023;SDS011;61199;47.526;8.538;2023-01-04T06:50:08;41.00;;;18.53;;
73023;SDS011;61199;47.526;8.538;2023-01-04T06:52:36;34.10;;;17.03;;
73023;SDS011;61199;47.526;8.538;2023-01-04T06:55:03;37.90;;;18.63;;
73023;SDS011;61199;47.526;8.538;2023-01-04T06:57:30;36.10;;;17.00;;
73023;SDS011;61199;47.526;8.538;2023-01-04T06:59:57;36.47;;;17.03;;
73023;SDS011;61199;47.526;8.538;2023-01-04T07:02:23;32.23;;;14.80;;
73023;SDS011;61199;47.526;8.538;2023-01-04T07:04:50;39.20;;;17.00;;
73023;SDS011;61199;47.526;8.538;2023-01-04T07:07:16;29.33;;;14.00;;
73023;SDS011;61199;47.526;8.538;2023-01-04T07:09:43;25.83;;;14.30;;
73023;SDS011;61199;47.526;8.538;2023-01-04T07:12:09;29.27;;;14.20;;
73023;SDS011;61199;47.526;8.538;2023-01-04T07:14:36;27.07;;;14.97;;
73023;SDS011;61199;47.526;8.538;2023-01-04T07:17:02;27.03;;;12.60;;
73023;SDS011;61199;47.526;8.538;2023-01-04T07:19:28;31.60;;;13.40;;
73023;SDS011;61199;47.526;8.538;2023-01-04T07:21:55;22.63;;;12.10;;
73023;SDS011;61199;47.526;8.538;2023-01-04T07:24:24;27.17;;;13.37;;
73023;SDS011;61199;47.526;8.538;2023-01-04T07:26:55;30.13;;;14.67;;
73023;SDS011;61199;47.526;8.538;2023-01-04T07:29:23;31.87;;;15.20;;
73023;SDS011;61199;47.526;8.538;2023-01-04T07:31:50;29.60;;;14.97;;
73023;SDS011;61199;47.526;8.538;2023-01-04T07:34:19;30.77;;;14.30;;
73023;SDS011;61199;47.526;8.538;2023-01-04T07:36:47;27.60;;;13.77;;
73023;SDS011;61199;47.526;8.538;2023-01-04T07:39:15;24.73;;;12.23;;
73023;SDS011;61199;47.526;8.538;2023-01-04T07:41:43;24.97;;;12.80;;
73023;SDS011;61199;47.526;8.538;2023-01-04T07:44:10;29.60;;;11.80;;
73023;SDS011;61199;47.526;8.538;2023-01-04T07:46:37;26.23;;;11.50;;
73023;SDS011;61199;47.526;8.538;2023-01-04T07:49:05;22.00;;;11.10;;
73023;SDS011;61199;47.526;8.538;2023-01-04T07:51:39;24.90;;;11.37;;
73023;SDS011;61199;47.526;8.538;2023-01-04T07:54:07;20.67;;;10.93;;
73023;SDS011;61199;47.526;8.538;2023-01-04T07:56:35;21.80;;;11.23;;
73023;SDS011;61199;47.526;8.538;2023-01-04T07:59:01;23.40;;;11.57;;
73023;SDS011;61199;47.526;8.538;2023-01-04T08:01:32;19.97;;;11.17;;
73023;SDS011;61199;47.526;8.538;2023-01-04T08:04:00;20.90;;;10.93;;
73023;SDS011;61199;47.526;8.538;2023-01-04T08:06:27;21.37;;;11.10;;
73023;SDS011;61199;47.526;8.538;2023-01-04T08:08:53;19.37;;;10.63;;
73023;SDS011;61199;47.526;8.538;2023-01-04T08:11:19;21.87;;;10.53;;
73023;SDS011;61199;47.526;8.538;2023-01-04T08:13:50;24.10;;;11.60;;
73023;SDS011;61199;47.526;8.538;2023-01-04T08:16:24;20.67;;;11.60;;
73023;SDS011;61199;47.526;8.538;2023-01-04T08:18:54;20.77;;;10.70;;
73023;SDS011;61199;47.526;8.538;2023-01-04T08:21:21;26.90;;;11.63;;
73023;SDS011;61199;47.526;8.538;2023-01-04T08:23:47;24.80;;;12.00;;
73023;SDS011;61199;47.526;8.538;2023-01-04T08:26:14;22.47;;;10.60;;
73023;SDS011;61199;47.526;8.538;2023-01-04T08:28:41;22.47;;;10.97;;
73023;SDS011;61199;47.526;8.538;2023-01-04T08:31:09;22.07;;;11.33;;
73023;SDS011;61199;47.526;8.538;2023-01-04T08:33:38;22.40;;;10.87;;
73023;SDS011;61199;47.526;8.538;2023-01-04T08:36:14;23.60;;;11.80;;
73023;SDS011;61199;47.526;8.538;2023-01-04T08:38:57;22.67;;;10.97;;
73023;SDS011;61199;47.526;8.538;2023-01-04T08:41:27;22.50;;;11.23;;
73023;SDS011;61199;47.526;8.538;2023-01-04T08:44:22;21.33;;;10.57;;
73023;SDS011;61199;47.526;8.538;2023-01-04T08:46:50;23.40;;;11.00;;
73023;SDS011;61199;47.526;8.538;2023-01-04T08:49:18;23.17;;;10.53;;
73023;SDS011;61199;47.526;8.538;2023-01-04T08:51:45;27.40;;;12.63;;
73023;SDS011;61199;47.526;8.538;2023-01-04T08:54:13;21.57;;;9.63;;
73023;SDS011;61199;47.526;8.538;2023-01-04T08:56:39;24.60;;;12.13;;
73023;SDS011;61199;47.526;8.538;2023-01-04T08:59:06;21.90;;;11.30;;
73023;SDS011;61199;47.526;8.538;2023-01-04T09:01:33;23.77;;;11.10;;
73023;SDS011;61199;47.526;8.538;2023-01-04T09:04:00;22.03;;;10.73;;
73023;SDS011;61199;47.526;8.538;2023-01-04T09:06:27;22.00;;;11.37;;
73023;SDS011;61199;47.526;8.538;2023-01-04T09:08:54;25.57;;;12.07;;
73023;SDS011;61199;47.526;8.538;2023-01-04T09:11:21;21.63;;;10.77;;
73023;SDS011;61199;47.526;8.538;2023-01-04T09:13:53;22.90;;;11.17;;
73023;SDS011;61199;47.526;8.538;2023-01-04T09:16:29;24.40;;;11.73;;
73023;SDS011;61199;47.526;8.538;2023-01-04T09:18:56;21.00;;;11.47;;
73023;SDS011;61199;47.526;8.538;2023-01-04T09:21:22;25.40;;;11.93;;
73023;SDS011;61199;47.526;8.538;2023-01-04T09:23:48;21.33;;;10.30;;
73023;SDS011;61199;47.526;8.538;2023-01-04T09:26:16;25.80;;;11.93;;
73023;SDS011;61199;47.526;8.538;2023-01-04T09:28:47;24.27;;;11.37;;
73023;SDS011;61199;47.526;8.538;2023-01-04T09:31:15;24.87;;;11.23;;
73023;SDS011;61199;47.526;8.538;2023-01-04T09:33:43;29.20;;;13.60;;
73023;SDS011;61199;47.526;8.538;2023-01-04T09:36:30;25.33;;;11.70;;
73023;SDS011;61199;47.526;8.538;2023-01-04T09:38:57;23.80;;;11.30;;
73023;SDS011;61199;47.526;8.538;2023-01-04T09:41:27;30.77;;;12.97;;
73023;SDS011;61199;47.526;8.538;2023-01-04T09:46:37;24.60;;;12.20;;
73023;SDS011;61199;47.526;8.538;2023-01-04T09:52:15;28.80;;;12.90;;
73023;SDS011;61199;47.526;8.538;2023-01-04T09:54:49;30.53;;;14.00;;
73023;SDS011;61199;47.526;8.538;2023-01-04T09:57:28;32.03;;;13.47;;
73023;SDS011;61199;47.526;8.538;2023-01-04T10:00:41;30.23;;;13.27;;
73023;SDS011;61199;47.526;8.538;2023-01-04T10:02:55;27.70;;;13.13;;
73023;SDS011;61199;47.526;8.538;2023-01-04T10:05:27;32.83;;;12.80;;
73023;SDS011;61199;47.526;8.538;2023-01-04T10:07:56;26.90;;;13.53;;
73023;SDS011;61199;47.526;8.538;2023-01-04T10:10:30;35.10;;;14.20;;
73023;SDS011;61199;47.526;8.538;2023-01-04T10:16:00;29.60;;;14.17;;
73023;SDS011;61199;47.526;8.538;2023-01-04T10:22:19;30.00;;;13.73;;
73023;SDS011;61199;47.526;8.538;2023-01-04T10:27:58;31.43;;;14.30;;
73023;SDS011;61199;47.526;8.538;2023-01-04T10:33:11;35.07;;;13.97;;
73023;SDS011;61199;47.526;8.538;2023-01-04T10:35:43;31.83;;;14.07;;
73023;SDS011;61199;47.526;8.538;2023-01-04T10:38:18;34.30;;;15.00;;
73023;SDS011;61199;47.526;8.538;2023-01-04T10:40:48;30.00;;;14.30;;
73023;SDS011;61199;47.526;8.538;2023-01-04T10:43:20;31.20;;;13.63;;
73023;SDS011;61199;47.526;8.538;2023-01-04T10:48:40;29.43;;;14.93;;
73023;SDS011;61199;47.526;8.538;2023-01-04T10:51:13;34.17;;;14.93;;
73023;SDS011;61199;47.526;8.538;2023-01-04T10:53:47;31.17;;;14.67;;
73023;SDS011;61199;47.526;8.538;2023-01-04T10:56:23;32.23;;;14.30;;
73023;SDS011;61199;47.526;8.538;2023-01-04T11:01:39;27.83;;;12.90;;
73023;SDS011;61199;47.526;8.538;2023-01-04T11:06:54;26.80;;;13.63;;
73023;SDS011;61199;47.526;8.538;2023-01-04T11:10:29;26.53;;;13.10;;
73023;SDS011;61199;47.526;8.538;2023-01-04T11:12:30;35.63;;;13.30;;
73023;SDS011;61199;47.526;8.538;2023-01-04T11:14:57;24.87;;;11.13;;
73023;SDS011;61199;47.526;8.538;2023-01-04T11:17:23;27.97;;;13.60;;
73023;SDS011;61199;47.526;8.538;2023-01-04T11:19:50;24.47;;;12.03;;
73023;SDS011;61199;47.526;8.538;2023-01-04T11:22:38;24.77;;;12.07;;
73023;SDS011;61199;47.526;8.538;2023-01-04T11:25:09;21.77;;;10.60;;
73023;SDS011;61199;47.526;8.538;2023-01-04T11:28:02;25.37;;;11.80;;
73023;SDS011;61199;47.526;8.538;2023-01-04T11:30:47;21.43;;;10.17;;
73023;SDS011;61199;47.526;8.538;2023-01-04T11:33:29;20.77;;;10.43;;
73023;SDS011;61199;47.526;8.538;2023-01-04T11:35:56;29.43;;;11.20;;
73023;SDS011;61199;47.526;8.538;2023-01-04T11:38:25;24.60;;;11.37;;
73023;SDS011;61199;47.526;8.538;2023-01-04T11:40:55;22.53;;;10.40;;
73023;SDS011;61199;47.526;8.538;2023-01-04T11:43:31;17.03;;;8.90;;
73023;SDS011;61199;47.526;8.538;2023-01-04T11:46:03;17.57;;;8.90;;
73023;SDS011;61199;47.526;8.538;2023-01-04T11:48:36;18.30;;;9.47;;
73023;SDS011;61199;47.526;8.538;2023-01-04T11:51:08;18.97;;;9.20;;
73023;SDS011;61199;47.526;8.538;2023-01-04T11:53:42;17.13;;;9.20;;
73023;SDS011;61199;47.526;8.538;2023-01-04T11:56:13;18.30;;;10.00;;
73023;SDS011;61199;47.526;8.538;2023-01-04T11:59:01;17.43;;;8.87;;
73023;SDS011;61199;47.526;8.538;2023-01-04T12:01:38;16.90;;;9.23;;
73023;SDS011;61199;47.526;8.538;2023-01-04T12:04:10;15.83;;;8.80;;
73023;SDS011;61199;47.526;8.538;2023-01-04T12:09:14;14.87;;;8.17;;
73023;SDS011;61199;47.526;8.538;2023-01-04T12:11:44;14.90;;;7.90;;
73023;SDS011;61199;47.526;8.538;2023-01-04T12:17:05;14.03;;;7.73;;
73023;SDS011;61199;47.526;8.538;2023-01-04T12:19:34;19.70;;;8.67;;
73023;SDS011;61199;47.526;8.538;2023-01-04T12:22:03;16.70;;;7.63;;
73023;SDS011;61199;47.526;8.538;2023-01-04T12:24:37;15.70;;;8.03;;
73023;SDS011;61199;47.526;8.538;2023-01-04T12:27:04;14.23;;;7.70;;
73023;SDS011;61199;47.526;8.538;2023-01-04T12:29:40;15.10;;;6.87;;
73023;SDS011;61199;47.526;8.538;2023-01-04T12:37:03;12.80;;;7.00;;
73023;SDS011;61199;47.526;8.538;2023-01-04T12:39:42;15.43;;;7.57;;
73023;SDS011;61199;47.526;8.538;2023-01-04T12:42:12;15.90;;;8.37;;
73023;SDS011;61199;47.526;8.538;2023-01-04T12:50:00;12.97;;;7.80;;
73023;SDS011;61199;47.526;8.538;2023-01-04T12:58:01;12.80;;;6.73;;
73023;SDS011;61199;47.526;8.538;2023-01-04T13:05:45;11.60;;;7.33;;
73023;SDS011;61199;47.526;8.538;2023-01-04T13:08:22;15.53;;;7.53;;
73023;SDS011;61199;47.526;8.538;2023-01-04T13:10:55;12.10;;;7.77;;
73023;SDS011;61199;47.526;8.538;2023-01-04T13:13:24;14.83;;;7.00;;
73023;SDS011;61199;47.526;8.538;2023-01-04T13:18:46;13.27;;;7.30;;
73023;SDS011;61199;47.526;8.538;2023-01-04T13:21:28;13.07;;;6.97;;
73023;SDS011;61199;47.526;8.538;2023-01-04T13:24:02;12.37;;;6.63;;
73023;SDS011;61199;47.526;8.538;2023-01-04T13:26:38;13.50;;;7.03;;
73023;SDS011;61199;47.526;8.538;2023-01-04T13:31:44;14.93;;;7.83;;
73023;SDS011;61199;47.526;8.538;2023-01-04T13:34:23;11.37;;;6.30;;
73023;SDS011;61199;47.526;8.538;2023-01-04T13:39:41;10.80;;;6.37;;
73023;SDS011;61199;47.526;8.538;2023-01-04T13:42:23;12.37;;;6.47;;
73023;SDS011;61199;47.526;8.538;2023-01-04T13:47:40;12.30;;;6.27;;
73023;SDS011;61199;47.526;8.538;2023-01-04T13:50:24;10.10;;;5.70;;
73023;SDS011;61199;47.526;8.538;2023-01-04T13:52:57;9.10;;;5.80;;
73023;SDS011;61199;47.526;8.538;2023-01-04T13:55:35;8.40;;;5.30;;
73023;SDS011;61199;47.526;8.538;2023-01-04T13:58:04;8.33;;;5.70;;
73023;SDS011;61199;47.526;8.538;2023-01-04T14:00:42;10.43;;;5.40;;
73023;SDS011;61199;47.526;8.538;2023-01-04T14:03:24;9.90;;;5.40;;
73023;SDS011;61199;47.526;8.538;2023-01-04T14:06:02;15.43;;;6.57;;
73023;SDS011;61199;47.526;8.538;2023-01-04T14:08:54;10.23;;;6.40;;
73023;SDS011;61199;47.526;8.538;2023-01-04T14:11:27;9.90;;;5.73;;
73023;SDS011;61199;47.526;8.538;2023-01-04T14:14:23;9.70;;;5.90;;
73023;SDS011;61199;47.526;8.538;2023-01-04T14:17:03;15.40;;;6.60;;
73023;SDS011;61199;47.526;8.538;2023-01-04T14:19:40;9.03;;;5.50;;
73023;SDS011;61199;47.526;8.538;2023-01-04T14:24:52;9.50;;;5.43;;
73023;SDS011;61199;47.526;8.538;2023-01-04T14:30:21;8.63;;;4.60;;
73023;SDS011;61199;47.526;8.538;2023-01-04T14:32:57;9.10;;;5.30;;
73023;SDS011;61199;47.526;8.538;2023-01-04T14:35:26;8.87;;;4.63;;
73023;SDS011;61199;47.526;8.538;2023-01-04T14:37:54;12.30;;;4.90;;
73023;SDS011;61199;47.526;8.538;2023-01-04T14:40:28;11.13;;;4.80;;
73023;SDS011;61199;47.526;8.538;2023-01-04T14:42:58;9.80;;;5.20;;
73023;SDS011;61199;47.526;8.538;2023-01-04T14:45:24;7.77;;;4.70;;
73023;SDS011;61199;47.526;8.538;2023-01-04T14:47:50;8.37;;;5.40;;
73023;SDS011;61199;47.526;8.538;2023-01-04T14:50:17;9.63;;;5.60;;
73023;SDS011;61199;47.526;8.538;2023-01-04T14:52:50;10.40;;;4.43;;
73023;SDS011;61199;47.526;8.538;2023-01-04T14:55:17;10.47;;;4.10;;
73023;SDS011;61199;47.526;8.538;2023-01-04T14:57:44;7.43;;;4.13;;
73023;SDS011;61199;47.526;8.538;2023-01-04T15:00:11;6.97;;;4.33;;
73023;SDS011;61199;47.526;8.538;2023-01-04T15:02:44;8.90;;;4.33;;
73023;SDS011;61199;47.526;8.538;2023-01-04T15:05:15;10.47;;;4.70;;
73023;SDS011;61199;47.526;8.538;2023-01-04T15:07:44;10.50;;;3.83;;
73023;SDS011;61199;47.526;8.538;2023-01-04T15:10:21;8.13;;;4.13;;
73023;SDS011;61199;47.526;8.538;2023-01-04T15:12:50;7.60;;;4.40;;
73023;SDS011;61199;47.526;8.538;2023-01-04T15:15:17;6.40;;;3.80;;
73023;SDS011;61199;47.526;8.538;2023-01-04T15:17:44;9.93;;;4.67;;
73023;SDS011;61199;47.526;8.538;2023-01-04T15:20:11;8.77;;;4.30;;
73023;SDS011;61199;47.526;8.538;2023-01-04T15:22:38;15.93;;;4.50;;
73023;SDS011;61199;47.526;8.538;2023-01-04T15:25:05;5.80;;;3.50;;
73023;SDS011;61199;47.526;8.538;2023-01-04T15:27:32;6.13;;;4.27;;
73023;SDS011;61199;47.526;8.538;2023-01-04T15:30:07;7.40;;;4.20;;
73023;SDS011;61199;47.526;8.538;2023-01-04T15:32:34;9.40;;;5.77;;
73023;SDS011;61199;47.526;8.538;2023-01-04T15:35:01;11.30;;;5.97;;
73023;SDS011;61199;47.526;8.538;2023-01-04T15:37:28;10.70;;;5.23;;
73023;SDS011;61199;47.526;8.538;2023-01-04T15:39:54;11.60;;;5.63;;
73023;SDS011;61199;47.526;8.538;2023-01-04T15:42:28;12.07;;;5.77;;
73023;SDS011;61199;47.526;8.538;2023-01-04T15:45:12;8.50;;;5.23;;
73023;SDS011;61199;47.526;8.538;2023-01-04T15:47:39;11.37;;;5.60;;
73023;SDS011;61199;47.526;8.538;2023-01-04T15:50:05;11.57;;;5.67;;
73023;SDS011;61199;47.526;8.538;2023-01-04T15:52:32;9.30;;;5.40;;
73023;SDS011;61199;47.526;8.538;2023-01-04T15:54:58;9.60;;;5.40;;
73023;SDS011;61199;47.526;8.538;2023-01-04T15:57:25;9.67;;;5.30;;
73023;SDS011;61199;47.526;8.538;2023-01-04T15:59:51;8.73;;;5.00;;
73023;SDS011;61199;47.526;8.538;2023-01-04T16:02:17;13.60;;;5.90;;
73023;SDS011;61199;47.526;8.538;2023-01-04T16:04:44;12.57;;;5.67;;
73023;SDS011;61199;47.526;8.538;2023-01-04T16:07:12;9.70;;;5.23;;
73023;SDS011;61199;47.526;8.538;2023-01-04T16:09:38;8.40;;;4.83;;
73023;SDS011;61199;47.526;8.538;2023-01-04T16:12:05;9.20;;;5.53;;
73023;SDS011;61199;47.526;8.538;2023-01-04T16:14:51;13.43;;;5.80;;
73023;SDS011;61199;47.526;8.538;2023-01-04T16:17:17;10.93;;;5.40;;
73023;SDS011;61199;47.526;8.538;2023-01-04T16:19:44;9.80;;;5.60;;
73023;SDS011;61199;47.526;8.538;2023-01-04T16:22:10;9.73;;;5.43;;
73023;SDS011;61199;47.526;8.538;2023-01-04T16:24:37;11.33;;;5.33;;
73023;SDS011;61199;47.526;8.538;2023-01-04T16:27:23;8.90;;;5.07;;
73023;SDS011;61199;47.526;8.538;2023-01-04T16:29:58;8.30;;;4.70;;
73023;SDS011;61199;47.526;8.538;2023-01-04T16:32:25;9.50;;;5.57;;
73023;SDS011;61199;47.526;8.538;2023-01-04T16:34:52;11.33;;;4.67;;